sensor_id;sensor_type;location;lat;lon;timestamp;pressure;altitude;pressure_sealevel;temperature;humidity
70458;BME280;57919;56.194;95.716;2023-04-23T00:07:43;100627.47;;;2.95;56.95
70458;BME280;57919;56.194;95.716;2023-04-23T00:17:45;100639.31;;;4.09;55.12
70458;BME280;57919;56.194;95.716;2023-04-23T00:27:47;100625.69;;;4.80;53.34
70458;BME280;57919;56.194;95.716;2023-04-23T00:37:49;100642.47;;;5.46;51.63
70458;BME280;57919;56.194;95.716;2023-04-23T00:47:52;100642.56;;;5.84;51.11
70458;BME280;57919;56.194;95.716;2023-04-23T00:57:54;100653.16;;;5.87;49.83
70458;BME280;57919;56.194;95.716;2023-04-23T01:07:56;100646.00;;;7.33;48.28
70458;BME280;57919;56.194;95.716;2023-04-23T01:17:58;100649.63;;;7.50;46.33
70458;BME280;57919;56.194;95.716;2023-04-23T01:28:01;100644.72;;;8.71;45.52
70458;BME280;57919;56.194;95.716;2023-04-23T01:38:03;100649.03;;;8.89;43.96
70458;BME280;57919;56.194;95.716;2023-04-23T01:48:07;100641.66;;;9.95;42.13
70458;BME280;57919;56.194;95.716;2023-04-23T01:58:09;100647.69;;;10.97;40.81
70458;BME280;57919;56.194;95.716;2023-04-23T02:08:11;100641.34;;;10.57;39.73
70458;BME280;57919;56.194;95.716;2023-04-23T02:18:13;100634.53;;;11.18;37.50
70458;BME280;57919;56.194;95.716;2023-04-23T02:28:15;100634.97;;;12.51;37.30
70458;BME280;57919;56.194;95.716;2023-04-23T02:38:17;100636.47;;;12.92;36.49
70458;BME280;57919;56.194;95.716;2023-04-23T02:48:18;100630.75;;;13.78;35.06
70458;BME280;57919;56.194;95.716;2023-04-23T02:58:22;100643.09;;;13.71;34.81
70458;BME280;57919;56.194;95.716;2023-04-23T03:08:26;100622.22;;;13.94;33.01
70458;BME280;57919;56.194;95.716;2023-04-23T03:18:29;100613.38;;;14.91;32.45
70458;BME280;57919;56.194;95.716;2023-04-23T03:28:32;100610.00;;;13.99;31.83
70458;BME280;57919;56.194;95.716;2023-04-23T03:38:34;100608.06;;;15.42;31.39
70458;BME280;57919;56.194;95.716;2023-04-23T03:48:38;100605.75;;;16.80;29.27
70458;BME280;57919;56.194;95.716;2023-04-23T03:58:44;100595.63;;;15.91;28.48
70458;BME280;57919;56.194;95.716;2023-04-23T04:08:46;100581.72;;;16.84;27.43
70458;BME280;57919;56.194;95.716;2023-04-23T04:18:48;100575.34;;;17.80;24.06
70458;BME280;57919;56.194;95.716;2023-04-23T04:28:50;100556.94;;;18.36;24.19
70458;BME280;57919;56.194;95.716;2023-04-23T04:38:52;100547.78;;;17.91;22.33
70458;BME280;57919;56.194;95.716;2023-04-23T04:48:56;100540.19;;;18.12;22.98
70458;BME280;57919;56.194;95.716;2023-04-23T04:58:58;100527.91;;;18.44;22.75
70458;BME280;57919;56.194;95.716;2023-04-23T05:09:00;100512.63;;;17.30;23.86
70458;BME280;57919;56.194;95.716;2023-04-23T05:19:02;100510.78;;;18.14;23.25
70458;BME280;57919;56.194;95.716;2023-04-23T05:29:04;100514.81;;;17.17;24.25
70458;BME280;57919;56.194;95.716;2023-04-23T05:39:06;100512.88;;;16.30;24.04
70458;BME280;57919;56.194;95.716;2023-04-23T05:49:07;100495.06;;;17.32;23.42
70458;BME280;57919;56.194;95.716;2023-04-23T05:59:10;100487.06;;;16.92;23.55
70458;BME280;57919;56.194;95.716;2023-04-23T06:09:12;100487.34;;;16.89;23.59
70458;BME280;57919;56.194;95.716;2023-04-23T06:19:13;100480.78;;;15.01;24.23
70458;BME280;57919;56.194;95.716;2023-04-23T06:29:16;100462.47;;;13.73;24.29
70458;BME280;57919;56.194;95.716;2023-04-23T06:39:47;100448.19;;;12.91;25.44
70458;BME280;57919;56.194;95.716;2023-04-23T06:49:49;100450.00;;;13.37;24.27
70458;BME280;57919;56.194;95.716;2023-04-23T06:59:51;100436.22;;;12.94;24.73
70458;BME280;57919;56.194;95.716;2023-04-23T07:09:56;100423.50;;;14.70;24.21
70458;BME280;57919;56.194;95.716;2023-04-23T07:19:58;100416.25;;;16.12;22.64
70458;BME280;57919;56.194;95.716;2023-04-23T07:30:00;100415.97;;;16.15;22.96
70458;BME280;57919;56.194;95.716;2023-04-23T07:40:04;100420.38;;;14.75;24.02
70458;BME280;57919;56.194;95.716;2023-04-23T07:50:08;100410.81;;;15.32;23.21
70458;BME280;57919;56.194;95.716;2023-04-23T08:00:11;100399.75;;;15.03;22.06
70458;BME280;57919;56.194;95.716;2023-04-23T08:10:16;100386.38;;;15.21;22.17
70458;BME280;57919;56.194;95.716;2023-04-23T08:20:18;100379.06;;;14.38;22.02
70458;BME280;57919;56.194;95.716;2023-04-23T08:30:20;100368.72;;;15.25;22.37
70458;BME280;57919;56.194;95.716;2023-04-23T08:40:22;100359.38;;;15.17;22.34
70458;BME280;57919;56.194;95.716;2023-04-23T08:50:24;100358.75;;;15.04;22.74
70458;BME280;57919;56.194;95.716;2023-04-23T09:00:26;100348.38;;;14.98;22.86
70458;BME280;57919;56.194;95.716;2023-04-23T09:10:28;100330.59;;;14.32;22.76
70458;BME280;57919;56.194;95.716;2023-04-23T09:20:30;100326.69;;;13.93;23.21
70458;BME280;57919;56.194;95.716;2023-04-23T09:30:38;100321.84;;;13.64;22.57
70458;BME280;57919;56.194;95.716;2023-04-23T09:40:41;100301.09;;;13.52;23.21
70458;BME280;57919;56.194;95.716;2023-04-23T09:50:43;100302.72;;;13.54;23.42
70458;BME280;57919;56.194;95.716;2023-04-23T10:00:45;100293.25;;;13.15;22.45
70458;BME280;57919;56.194;95.716;2023-04-23T10:10:47;100269.06;;;12.79;23.99
70458;BME280;57919;56.194;95.716;2023-04-23T10:20:51;100275.47;;;12.78;24.23
70458;BME280;57919;56.194;95.716;2023-04-23T10:30:55;100270.66;;;12.70;24.52
70458;BME280;57919;56.194;95.716;2023-04-23T10:40:58;100268.44;;;12.53;24.39
70458;BME280;57919;56.194;95.716;2023-04-23T10:51:01;100274.78;;;12.18;24.60
70458;BME280;57919;56.194;95.716;2023-04-23T11:01:04;100261.69;;;12.01;24.90
70458;BME280;57919;56.194;95.716;2023-04-23T11:11:07;100252.25;;;11.83;25.24
70458;BME280;57919;56.194;95.716;2023-04-23T11:21:09;100235.75;;;11.62;25.56
70458;BME280;57919;56.194;95.716;2023-04-23T11:31:11;100222.84;;;11.42;25.65
70458;BME280;57919;56.194;95.716;2023-04-23T11:41:13;100224.47;;;11.20;26.02
70458;BME280;57919;56.194;95.716;2023-04-23T11:51:15;100224.22;;;10.99;25.82
70458;BME280;57919;56.194;95.716;2023-04-23T12:01:18;100213.06;;;10.67;26.33
70458;BME280;57919;56.194;95.716;2023-04-23T12:11:22;100212.88;;;10.45;26.34
70458;BME280;57919;56.194;95.716;2023-04-23T12:21:24;100209.97;;;10.23;26.44
70458;BME280;57919;56.194;95.716;2023-04-23T12:31:29;100194.03;;;9.80;27.17
70458;BME280;57919;56.194;95.716;2023-04-23T12:41:31;100197.63;;;9.41;27.82
70458;BME280;57919;56.194;95.716;2023-04-23T12:51:33;100188.13;;;8.82;28.66
70458;BME280;57919;56.194;95.716;2023-04-23T13:01:35;100193.19;;;8.45;28.94
70458;BME280;57919;56.194;95.716;2023-04-23T13:11:38;100191.44;;;8.16;29.43
70458;BME280;57919;56.194;95.716;2023-04-23T13:21:40;100186.50;;;7.80;30.72
70458;BME280;57919;56.194;95.716;2023-04-23T13:31:42;100184.53;;;7.23;32.21
70458;BME280;57919;56.194;95.716;2023-04-23T13:41:44;100192.13;;;7.01;32.78
70458;BME280;57919;56.194;95.716;2023-04-23T13:51:46;100198.38;;;6.86;33.61
70458;BME280;57919;56.194;95.716;2023-04-23T14:01:48;100185.22;;;6.65;34.20
70458;BME280;57919;56.194;95.716;2023-04-23T14:11:50;100188.84;;;6.48;34.34
70458;BME280;57919;56.194;95.716;2023-04-23T14:21:52;100191.91;;;6.09;34.68
70458;BME280;57919;56.194;95.716;2023-04-23T14:31:54;100187.16;;;5.64;35.16
70458;BME280;57919;56.194;95.716;2023-04-23T14:41:56;100184.47;;;5.12;35.93
70458;BME280;57919;56.194;95.716;2023-04-23T14:51:58;100182.28;;;4.84;36.54
70458;BME280;57919;56.194;95.716;2023-04-23T15:02:00;100175.94;;;4.68;36.97
70458;BME280;57919;56.194;95.716;2023-04-23T15:12:05;100177.44;;;4.38;37.61
70458;BME280;57919;56.194;95.716;2023-04-23T15:22:27;100168.28;;;4.04;38.14
70458;BME280;57919;56.194;95.716;2023-04-23T15:32:29;100157.06;;;3.96;38.53
70458;BME280;57919;56.194;95.716;2023-04-23T15:42:31;100155.03;;;3.82;38.80
70458;BME280;57919;56.194;95.716;2023-04-23T15:52:33;100149.53;;;3.85;39.24
70458;BME280;57919;56.194;95.716;2023-04-23T16:02:35;100144.69;;;3.94;39.69
70458;BME280;57919;56.194;95.716;2023-04-23T16:12:38;100135.72;;;4.13;40.44
70458;BME280;57919;56.194;95.716;2023-04-23T16:22:45;100129.59;;;4.11;40.57
70458;BME280;57919;56.194;95.716;2023-04-23T16:32:47;100108.09;;;3.75;41.76
70458;BME280;57919;56.194;95.716;2023-04-23T16:42:49;100105.31;;;3.58;42.15
70458;BME280;57919;56.194;95.716;2023-04-23T16:52:51;100098.66;;;3.67;42.73
70458;BME280;57919;56.194;95.716;2023-04-23T17:02:53;100102.84;;;3.53;43.04
70458;BME280;57919;56.194;95.716;2023-04-23T17:12:55;100102.25;;;3.47;43.75
70458;BME280;57919;56.194;95.716;2023-04-23T17:22:57;100088.66;;;3.51;43.62
70458;BME280;57919;56.194;95.716;2023-04-23T17:32:59;100077.72;;;3.37;44.00
70458;BME280;57919;56.194;95.716;2023-04-23T17:43:01;100066.78;;;3.23;44.56
70458;BME280;57919;56.194;95.716;2023-04-23T17:53:02;100061.25;;;3.07;44.87
70458;BME280;57919;56.194;95.716;2023-04-23T18:03:05;100058.03;;;2.79;45.57
70458;BME280;57919;56.194;95.716;2023-04-23T18:13:07;100048.81;;;2.66;45.82
70458;BME280;57919;56.194;95.716;2023-04-23T18:23:12;100026.97;;;2.56;46.76
70458;BME280;57919;56.194;95.716;2023-04-23T18:43:19;100006.81;;;2.49;47.14
70458;BME280;57919;56.194;95.716;2023-04-23T18:53:21;100006.13;;;2.44;47.46
70458;BME280;57919;56.194;95.716;2023-04-23T19:03:23;99996.09;;;2.29;47.89
70458;BME280;57919;56.194;95.716;2023-04-23T19:13:25;99979.44;;;2.02;47.79
70458;BME280;57919;56.194;95.716;2023-04-23T19:23:27;99976.94;;;1.53;48.52
70458;BME280;57919;56.194;95.716;2023-04-23T19:33:29;99968.84;;;1.10;49.46
70458;BME280;57919;56.194;95.716;2023-04-23T19:43:31;99960.91;;;0.85;50.04
70458;BME280;57919;56.194;95.716;2023-04-23T19:53:32;99961.31;;;0.49;50.28
70458;BME280;57919;56.194;95.716;2023-04-23T20:03:35;99941.03;;;0.20;51.02
70458;BME280;57919;56.194;95.716;2023-04-23T20:13:37;99928.16;;;0.08;52.22
70458;BME280;57919;56.194;95.716;2023-04-23T20:23:39;99930.94;;;0.05;52.46
70458;BME280;57919;56.194;95.716;2023-04-23T20:33:41;99916.66;;;-0.19;52.92
70458;BME280;57919;56.194;95.716;2023-04-23T20:43:43;99923.47;;;-0.37;53.03
70458;BME280;57919;56.194;95.716;2023-04-23T20:53:45;99924.00;;;-0.53;53.93
70458;BME280;57919;56.194;95.716;2023-04-23T21:03:47;99923.72;;;-0.72;54.91
70458;BME280;57919;56.194;95.716;2023-04-23T21:13:49;99912.06;;;-0.96;55.18
70458;BME280;57919;56.194;95.716;2023-04-23T21:23:51;99903.78;;;-1.15;56.74
70458;BME280;57919;56.194;95.716;2023-04-23T21:33:53;99890.63;;;-1.19;57.25
70458;BME280;57919;56.194;95.716;2023-04-23T21:43:56;99887.06;;;-1.18;57.20
70458;BME280;57919;56.194;95.716;2023-04-23T21:53:57;99873.03;;;-1.22;56.87
70458;BME280;57919;56.194;95.716;2023-04-23T22:04:00;99853.84;;;-1.32;57.46
70458;BME280;57919;56.194;95.716;2023-04-23T22:14:03;99847.50;;;-1.26;56.70
70458;BME280;57919;56.194;95.716;2023-04-23T22:24:05;99849.00;;;-1.17;57.36
70458;BME280;57919;56.194;95.716;2023-04-23T22:34:07;99836.59;;;-1.17;58.22
70458;BME280;57919;56.194;95.716;2023-04-23T22:44:09;99836.31;;;-1.08;58.55
70458;BME280;57919;56.194;95.716;2023-04-23T22:54:11;99837.22;;;-0.81;57.63
70458;BME280;57919;56.194;95.716;2023-04-23T23:04:13;99836.41;;;-0.30;57.36
70458;BME280;57919;56.194;95.716;2023-04-23T23:14:15;99827.06;;;0.56;56.05
70458;BME280;57919;56.194;95.716;2023-04-23T23:24:17;99819.25;;;1.63;53.81
70458;BME280;57919;56.194;95.716;2023-04-23T23:34:19;99820.03;;;2.46;51.59
70458;BME280;57919;56.194;95.716;2023-04-23T23:44:21;99808.25;;;3.25;49.56
70458;BME280;57919;56.194;95.716;2023-04-23T23:54:23;99807.22;;;3.81;48.18
